sensor_id;sensor_type;location;lat;lon;timestamp;P1;durP1;ratioP1;P2;durP2;ratioP2
13743;SDS011;6943;52.368;9.966;2022-09-30T00:01:15;7.40;;;6.63;;
13743;SDS011;6943;52.368;9.966;2022-09-30T00:03:40;7.53;;;6.80;;
13743;SDS011;6943;52.368;9.966;2022-09-30T00:06:07;7.13;;;6.53;;
13743;SDS011;6943;52.368;9.966;2022-09-30T00:08:34;6.57;;;5.97;;
13743;SDS011;6943;52.368;9.966;2022-09-30T00:11:08;8.20;;;6.80;;
13743;SDS011;6943;52.368;9.966;2022-09-30T00:13:44;7.20;;;6.50;;
13743;SDS011;6943;52.368;9.966;2022-09-30T00:16:12;7.77;;;7.07;;
13743;SDS011;6943;52.368;9.966;2022-09-30T00:18:38;8.67;;;7.40;;
13743;SDS011;6943;52.368;9.966;2022-09-30T00:21:05;7.80;;;7.00;;
13743;SDS011;6943;52.368;9.966;2022-09-30T00:23:32;7.33;;;6.57;;
13743;SDS011;6943;52.368;9.966;2022-09-30T00:25:58;7.50;;;6.80;;
13743;SDS011;6943;52.368;9.966;2022-09-30T00:28:26;9.10;;;7.33;;
13743;SDS011;6943;52.368;9.966;2022-09-30T00:30:52;8.20;;;7.50;;
13743;SDS011;6943;52.368;9.966;2022-09-30T00:33:18;7.73;;;7.03;;
13743;SDS011;6943;52.368;9.966;2022-09-30T00:35:43;7.77;;;6.97;;
13743;SDS011;6943;52.368;9.966;2022-09-30T00:38:09;8.43;;;7.17;;
13743;SDS011;6943;52.368;9.966;2022-09-30T00:40:37;7.73;;;7.07;;
13743;SDS011;6943;52.368;9.966;2022-09-30T00:43:04;7.70;;;7.00;;
13743;SDS011;6943;52.368;9.966;2022-09-30T00:45:36;7.83;;;7.13;;
13743;SDS011;6943;52.368;9.966;2022-09-30T00:48:05;8.40;;;7.60;;
13743;SDS011;6943;52.368;9.966;2022-09-30T00:50:45;10.37;;;8.00;;
13743;SDS011;6943;52.368;9.966;2022-09-30T00:53:29;8.33;;;7.53;;
13743;SDS011;6943;52.368;9.966;2022-09-30T00:58:45;8.17;;;7.37;;
13743;SDS011;6943;52.368;9.966;2022-09-30T01:01:15;8.30;;;7.40;;
13743;SDS011;6943;52.368;9.966;2022-09-30T01:03:47;9.03;;;8.13;;
13743;SDS011;6943;52.368;9.966;2022-09-30T01:06:19;8.57;;;7.77;;
13743;SDS011;6943;52.368;9.966;2022-09-30T01:08:47;8.73;;;7.93;;
13743;SDS011;6943;52.368;9.966;2022-09-30T01:11:13;9.50;;;7.43;;
13743;SDS011;6943;52.368;9.966;2022-09-30T01:13:39;8.63;;;7.83;;
13743;SDS011;6943;52.368;9.966;2022-09-30T01:27:38;8.33;;;7.53;;
13743;SDS011;6943;52.368;9.966;2022-09-30T01:44:12;10.87;;;9.17;;
13743;SDS011;6943;52.368;9.966;2022-09-30T01:46:54;10.60;;;8.30;;
13743;SDS011;6943;52.368;9.966;2022-09-30T01:54:32;11.50;;;8.97;;
13743;SDS011;6943;52.368;9.966;2022-09-30T01:57:25;9.57;;;8.70;;
13743;SDS011;6943;52.368;9.966;2022-09-30T02:00:07;10.60;;;9.60;;
13743;SDS011;6943;52.368;9.966;2022-09-30T02:08:26;9.53;;;8.63;;
13743;SDS011;6943;52.368;9.966;2022-09-30T02:10:57;9.50;;;8.60;;
13743;SDS011;6943;52.368;9.966;2022-09-30T02:13:28;9.77;;;8.77;;
13743;SDS011;6943;52.368;9.966;2022-09-30T02:15:55;13.47;;;12.07;;
13743;SDS011;6943;52.368;9.966;2022-09-30T02:18:30;10.13;;;8.90;;
13743;SDS011;6943;52.368;9.966;2022-09-30T02:21:03;10.17;;;7.63;;
13743;SDS011;6943;52.368;9.966;2022-09-30T02:23:32;9.20;;;8.30;;
13743;SDS011;6943;52.368;9.966;2022-09-30T02:26:12;8.87;;;8.07;;
13743;SDS011;6943;52.368;9.966;2022-09-30T02:28:43;9.07;;;8.20;;
13743;SDS011;6943;52.368;9.966;2022-09-30T02:31:13;8.60;;;7.90;;
13743;SDS011;6943;52.368;9.966;2022-09-30T02:33:48;9.03;;;8.17;;
13743;SDS011;6943;52.368;9.966;2022-09-30T02:36:20;9.30;;;8.30;;
13743;SDS011;6943;52.368;9.966;2022-09-30T02:39:08;8.43;;;7.57;;
13743;SDS011;6943;52.368;9.966;2022-09-30T02:41:38;8.80;;;8.00;;
13743;SDS011;6943;52.368;9.966;2022-09-30T02:44:09;8.60;;;7.80;;
13743;SDS011;6943;52.368;9.966;2022-09-30T02:46:40;9.27;;;8.37;;
13743;SDS011;6943;52.368;9.966;2022-09-30T02:49:26;9.00;;;8.20;;
13743;SDS011;6943;52.368;9.966;2022-09-30T02:52:20;8.80;;;8.00;;
13743;SDS011;6943;52.368;9.966;2022-09-30T02:55:00;9.60;;;8.30;;
13743;SDS011;6943;52.368;9.966;2022-09-30T03:00:23;8.93;;;8.03;;
13743;SDS011;6943;52.368;9.966;2022-09-30T03:02:49;9.83;;;8.83;;
13743;SDS011;6943;52.368;9.966;2022-09-30T03:05:18;9.10;;;8.30;;
13743;SDS011;6943;52.368;9.966;2022-09-30T03:07:44;9.00;;;8.20;;
13743;SDS011;6943;52.368;9.966;2022-09-30T03:10:13;9.87;;;8.80;;
13743;SDS011;6943;52.368;9.966;2022-09-30T03:12:43;9.23;;;8.33;;
13743;SDS011;6943;52.368;9.966;2022-09-30T03:24:44;11.93;;;9.10;;
13743;SDS011;6943;52.368;9.966;2022-09-30T03:27:43;9.73;;;8.83;;
13743;SDS011;6943;52.368;9.966;2022-09-30T03:30:19;9.50;;;8.70;;
13743;SDS011;6943;52.368;9.966;2022-09-30T03:38:21;8.53;;;7.53;;
13743;SDS011;6943;52.368;9.966;2022-09-30T03:40:57;9.30;;;8.47;;
13743;SDS011;6943;52.368;9.966;2022-09-30T03:46:29;9.27;;;8.30;;
13743;SDS011;6943;52.368;9.966;2022-09-30T03:49:00;9.77;;;8.97;;
13743;SDS011;6943;52.368;9.966;2022-09-30T03:51:30;9.87;;;8.97;;
13743;SDS011;6943;52.368;9.966;2022-09-30T03:53:57;10.67;;;9.53;;
13743;SDS011;6943;52.368;9.966;2022-09-30T03:56:23;11.07;;;9.87;;
13743;SDS011;6943;52.368;9.966;2022-09-30T03:58:53;10.73;;;9.73;;
13743;SDS011;6943;52.368;9.966;2022-09-30T04:01:20;10.93;;;9.77;;
13743;SDS011;6943;52.368;9.966;2022-09-30T04:03:47;10.73;;;9.73;;
13743;SDS011;6943;52.368;9.966;2022-09-30T04:06:16;10.70;;;9.60;;
13743;SDS011;6943;52.368;9.966;2022-09-30T04:08:42;9.93;;;8.97;;
13743;SDS011;6943;52.368;9.966;2022-09-30T04:11:08;10.70;;;9.70;;
13743;SDS011;6943;52.368;9.966;2022-09-30T04:13:34;9.97;;;9.07;;
13743;SDS011;6943;52.368;9.966;2022-09-30T04:16:00;10.50;;;9.50;;
13743;SDS011;6943;52.368;9.966;2022-09-30T04:18:26;11.87;;;9.10;;
13743;SDS011;6943;52.368;9.966;2022-09-30T04:20:51;11.83;;;10.10;;
13743;SDS011;6943;52.368;9.966;2022-09-30T04:23:17;10.63;;;9.53;;
13743;SDS011;6943;52.368;9.966;2022-09-30T04:25:42;10.37;;;9.43;;
13743;SDS011;6943;52.368;9.966;2022-09-30T04:28:15;10.17;;;9.17;;
13743;SDS011;6943;52.368;9.966;2022-09-30T04:30:40;11.00;;;9.83;;
13743;SDS011;6943;52.368;9.966;2022-09-30T04:33:06;10.83;;;9.83;;
13743;SDS011;6943;52.368;9.966;2022-09-30T04:35:31;10.90;;;9.80;;
13743;SDS011;6943;52.368;9.966;2022-09-30T04:37:57;10.60;;;9.60;;
13743;SDS011;6943;52.368;9.966;2022-09-30T04:40:22;10.83;;;9.83;;
13743;SDS011;6943;52.368;9.966;2022-09-30T04:42:48;10.10;;;9.20;;
13743;SDS011;6943;52.368;9.966;2022-09-30T04:45:13;10.10;;;9.20;;
13743;SDS011;6943;52.368;9.966;2022-09-30T04:47:42;10.67;;;9.67;;
13743;SDS011;6943;52.368;9.966;2022-09-30T04:50:11;9.73;;;8.73;;
13743;SDS011;6943;52.368;9.966;2022-09-30T04:52:39;10.60;;;9.40;;
13743;SDS011;6943;52.368;9.966;2022-09-30T04:55:07;10.63;;;9.63;;
13743;SDS011;6943;52.368;9.966;2022-09-30T04:57:33;11.73;;;9.80;;
13743;SDS011;6943;52.368;9.966;2022-09-30T04:59:59;10.53;;;9.53;;
13743;SDS011;6943;52.368;9.966;2022-09-30T05:02:25;11.67;;;10.43;;
13743;SDS011;6943;52.368;9.966;2022-09-30T05:04:52;11.17;;;10.13;;
13743;SDS011;6943;52.368;9.966;2022-09-30T05:07:19;12.23;;;10.93;;
13743;SDS011;6943;52.368;9.966;2022-09-30T05:09:45;14.27;;;10.93;;
13743;SDS011;6943;52.368;9.966;2022-09-30T05:12:10;11.57;;;10.43;;
13743;SDS011;6943;52.368;9.966;2022-09-30T05:14:36;13.27;;;10.60;;
13743;SDS011;6943;52.368;9.966;2022-09-30T05:17:02;11.73;;;10.60;;
13743;SDS011;6943;52.368;9.966;2022-09-30T05:19:28;13.83;;;10.47;;
13743;SDS011;6943;52.368;9.966;2022-09-30T05:21:54;12.00;;;10.80;;
13743;SDS011;6943;52.368;9.966;2022-09-30T05:24:19;12.07;;;10.77;;
13743;SDS011;6943;52.368;9.966;2022-09-30T05:26:45;12.27;;;10.57;;
13743;SDS011;6943;52.368;9.966;2022-09-30T05:29:10;11.50;;;10.27;;
13743;SDS011;6943;52.368;9.966;2022-09-30T05:31:36;11.63;;;10.30;;
13743;SDS011;6943;52.368;9.966;2022-09-30T05:34:02;12.00;;;10.87;;
13743;SDS011;6943;52.368;9.966;2022-09-30T05:36:28;11.93;;;10.73;;
13743;SDS011;6943;52.368;9.966;2022-09-30T05:38:54;12.30;;;10.67;;
13743;SDS011;6943;52.368;9.966;2022-09-30T05:41:19;11.47;;;9.93;;
13743;SDS011;6943;52.368;9.966;2022-09-30T05:43:46;11.90;;;10.70;;
13743;SDS011;6943;52.368;9.966;2022-09-30T05:46:12;12.13;;;10.93;;
13743;SDS011;6943;52.368;9.966;2022-09-30T05:48:38;12.57;;;11.03;;
13743;SDS011;6943;52.368;9.966;2022-09-30T05:51:04;12.47;;;10.93;;
13743;SDS011;6943;52.368;9.966;2022-09-30T05:53:30;12.30;;;10.97;;
13743;SDS011;6943;52.368;9.966;2022-09-30T05:55:56;12.77;;;11.50;;
13743;SDS011;6943;52.368;9.966;2022-09-30T05:58:22;12.27;;;10.97;;
13743;SDS011;6943;52.368;9.966;2022-09-30T06:00:48;13.50;;;11.27;;
13743;SDS011;6943;52.368;9.966;2022-09-30T06:03:14;13.50;;;12.10;;
13743;SDS011;6943;52.368;9.966;2022-09-30T06:05:40;12.90;;;11.50;;
13743;SDS011;6943;52.368;9.966;2022-09-30T06:08:06;14.47;;;10.83;;
13743;SDS011;6943;52.368;9.966;2022-09-30T06:10:32;12.77;;;11.17;;
13743;SDS011;6943;52.368;9.966;2022-09-30T06:12:59;12.90;;;11.70;;
13743;SDS011;6943;52.368;9.966;2022-09-30T06:15:26;12.27;;;10.97;;
13743;SDS011;6943;52.368;9.966;2022-09-30T06:17:52;12.23;;;10.97;;
13743;SDS011;6943;52.368;9.966;2022-09-30T06:20:18;11.43;;;10.03;;
13743;SDS011;6943;52.368;9.966;2022-09-30T06:22:44;12.07;;;10.90;;
13743;SDS011;6943;52.368;9.966;2022-09-30T06:25:10;12.00;;;10.80;;
13743;SDS011;6943;52.368;9.966;2022-09-30T06:27:35;12.27;;;11.07;;
13743;SDS011;6943;52.368;9.966;2022-09-30T06:30:02;11.63;;;10.50;;
13743;SDS011;6943;52.368;9.966;2022-09-30T06:32:29;11.80;;;10.20;;
13743;SDS011;6943;52.368;9.966;2022-09-30T06:34:55;11.23;;;10.13;;
13743;SDS011;6943;52.368;9.966;2022-09-30T06:37:21;11.33;;;10.10;;
13743;SDS011;6943;52.368;9.966;2022-09-30T06:39:46;10.83;;;9.73;;
13743;SDS011;6943;52.368;9.966;2022-09-30T06:42:13;10.93;;;9.93;;
13743;SDS011;6943;52.368;9.966;2022-09-30T06:44:38;10.40;;;9.43;;
13743;SDS011;6943;52.368;9.966;2022-09-30T06:47:03;13.10;;;10.73;;
13743;SDS011;6943;52.368;9.966;2022-09-30T06:49:29;11.60;;;10.53;;
13743;SDS011;6943;52.368;9.966;2022-09-30T06:51:55;10.60;;;9.67;;
13743;SDS011;6943;52.368;9.966;2022-09-30T06:54:21;9.80;;;8.73;;
13743;SDS011;6943;52.368;9.966;2022-09-30T06:56:47;10.43;;;9.53;;
13743;SDS011;6943;52.368;9.966;2022-09-30T06:59:13;11.40;;;9.07;;
13743;SDS011;6943;52.368;9.966;2022-09-30T07:01:42;9.87;;;8.87;;
13743;SDS011;6943;52.368;9.966;2022-09-30T07:04:09;9.37;;;8.47;;
13743;SDS011;6943;52.368;9.966;2022-09-30T07:06:36;9.70;;;8.80;;
13743;SDS011;6943;52.368;9.966;2022-09-30T07:09:02;8.13;;;7.47;;
13743;SDS011;6943;52.368;9.966;2022-09-30T07:11:29;8.73;;;7.93;;
13743;SDS011;6943;52.368;9.966;2022-09-30T07:13:54;8.30;;;7.60;;
13743;SDS011;6943;52.368;9.966;2022-09-30T07:16:20;7.20;;;6.60;;
13743;SDS011;6943;52.368;9.966;2022-09-30T07:18:46;8.10;;;7.40;;
13743;SDS011;6943;52.368;9.966;2022-09-30T07:21:12;8.13;;;7.33;;
13743;SDS011;6943;52.368;9.966;2022-09-30T07:23:39;7.17;;;6.57;;
13743;SDS011;6943;52.368;9.966;2022-09-30T07:26:12;7.53;;;6.93;;
13743;SDS011;6943;52.368;9.966;2022-09-30T07:28:39;7.53;;;6.83;;
13743;SDS011;6943;52.368;9.966;2022-09-30T07:31:06;7.77;;;7.17;;
13743;SDS011;6943;52.368;9.966;2022-09-30T07:33:35;7.43;;;6.60;;
13743;SDS011;6943;52.368;9.966;2022-09-30T07:36:02;7.63;;;6.93;;
13743;SDS011;6943;52.368;9.966;2022-09-30T07:38:31;7.57;;;6.80;;
13743;SDS011;6943;52.368;9.966;2022-09-30T07:41:00;7.32;;;6.63;;
13743;SDS011;6943;52.368;9.966;2022-09-30T07:43:34;7.20;;;6.60;;
13743;SDS011;6943;52.368;9.966;2022-09-30T07:46:11;7.30;;;6.60;;
13743;SDS011;6943;52.368;9.966;2022-09-30T07:48:43;7.07;;;6.57;;
13743;SDS011;6943;52.368;9.966;2022-09-30T07:51:21;7.80;;;7.20;;
13743;SDS011;6943;52.368;9.966;2022-09-30T07:53:50;7.45;;;6.78;;
13743;SDS011;6943;52.368;9.966;2022-09-30T07:56:22;8.52;;;7.78;;
13743;SDS011;6943;52.368;9.966;2022-09-30T07:58:48;7.80;;;7.10;;
13743;SDS011;6943;52.368;9.966;2022-09-30T08:01:18;7.65;;;6.95;;
13743;SDS011;6943;52.368;9.966;2022-09-30T08:03:44;7.93;;;7.25;;
13743;SDS011;6943;52.368;9.966;2022-09-30T08:06:11;8.05;;;7.35;;
13743;SDS011;6943;52.368;9.966;2022-09-30T08:08:37;7.53;;;6.82;;
13743;SDS011;6943;52.368;9.966;2022-09-30T08:11:02;7.95;;;7.25;;
13743;SDS011;6943;52.368;9.966;2022-09-30T08:13:29;8.40;;;7.70;;
13743;SDS011;6943;52.368;9.966;2022-09-30T08:15:55;8.27;;;7.47;;
13743;SDS011;6943;52.368;9.966;2022-09-30T08:18:20;7.30;;;6.70;;
13743;SDS011;6943;52.368;9.966;2022-09-30T08:20:46;8.55;;;7.85;;
13743;SDS011;6943;52.368;9.966;2022-09-30T08:23:11;8.85;;;7.97;;
13743;SDS011;6943;52.368;9.966;2022-09-30T08:25:37;8.27;;;7.60;;
13743;SDS011;6943;52.368;9.966;2022-09-30T08:28:02;8.88;;;7.97;;
13743;SDS011;6943;52.368;9.966;2022-09-30T08:30:28;8.20;;;7.53;;
13743;SDS011;6943;52.368;9.966;2022-09-30T08:32:53;8.57;;;7.88;;
13743;SDS011;6943;52.368;9.966;2022-09-30T08:35:19;8.73;;;7.82;;
13743;SDS011;6943;52.368;9.966;2022-09-30T08:37:44;9.07;;;8.25;;
13743;SDS011;6943;52.368;9.966;2022-09-30T08:40:20;9.07;;;8.20;;
13743;SDS011;6943;52.368;9.966;2022-09-30T08:42:53;8.20;;;7.50;;
13743;SDS011;6943;52.368;9.966;2022-09-30T08:45:25;8.27;;;7.63;;
13743;SDS011;6943;52.368;9.966;2022-09-30T08:48:27;8.85;;;8.13;;
13743;SDS011;6943;52.368;9.966;2022-09-30T08:51:37;8.45;;;7.75;;
13743;SDS011;6943;52.368;9.966;2022-09-30T08:54:10;8.07;;;7.47;;
13743;SDS011;6943;52.368;9.966;2022-09-30T08:56:39;8.10;;;7.43;;
13743;SDS011;6943;52.368;9.966;2022-09-30T09:01:51;8.88;;;8.07;;
13743;SDS011;6943;52.368;9.966;2022-09-30T09:04:22;8.48;;;7.68;;
13743;SDS011;6943;52.368;9.966;2022-09-30T09:09:39;8.73;;;7.95;;
13743;SDS011;6943;52.368;9.966;2022-09-30T09:12:32;8.75;;;8.05;;
13743;SDS011;6943;52.368;9.966;2022-09-30T09:20:53;8.80;;;8.10;;
13743;SDS011;6943;52.368;9.966;2022-09-30T09:23:23;10.52;;;8.88;;
13743;SDS011;6943;52.368;9.966;2022-09-30T09:25:50;8.80;;;8.10;;
13743;SDS011;6943;52.368;9.966;2022-09-30T09:28:22;9.35;;;8.55;;
13743;SDS011;6943;52.368;9.966;2022-09-30T09:30:55;9.53;;;8.70;;
13743;SDS011;6943;52.368;9.966;2022-09-30T09:33:24;9.40;;;8.50;;
13743;SDS011;6943;52.368;9.966;2022-09-30T09:42:05;9.37;;;8.57;;
13743;SDS011;6943;52.368;9.966;2022-09-30T09:44:59;10.70;;;8.87;;
13743;SDS011;6943;52.368;9.966;2022-09-30T09:47:26;10.03;;;9.13;;
13743;SDS011;6943;52.368;9.966;2022-09-30T09:49:52;10.47;;;9.40;;
13743;SDS011;6943;52.368;9.966;2022-09-30T09:52:26;10.53;;;9.37;;
13743;SDS011;6943;52.368;9.966;2022-09-30T09:55:06;10.97;;;9.90;;
13743;SDS011;6943;52.368;9.966;2022-09-30T09:57:35;12.10;;;10.07;;
13743;SDS011;6943;52.368;9.966;2022-09-30T10:00:02;11.17;;;9.97;;
13743;SDS011;6943;52.368;9.966;2022-09-30T10:03:00;9.70;;;8.80;;
13743;SDS011;6943;52.368;9.966;2022-09-30T10:05:57;10.20;;;9.20;;
13743;SDS011;6943;52.368;9.966;2022-09-30T10:08:26;10.20;;;9.20;;
13743;SDS011;6943;52.368;9.966;2022-09-30T10:10:57;10.43;;;9.23;;
13743;SDS011;6943;52.368;9.966;2022-09-30T10:13:29;10.43;;;9.33;;
13743;SDS011;6943;52.368;9.966;2022-09-30T10:15:57;10.00;;;9.10;;
13743;SDS011;6943;52.368;9.966;2022-09-30T10:18:26;8.90;;;8.10;;
13743;SDS011;6943;52.368;9.966;2022-09-30T10:20:55;10.20;;;9.13;;
13743;SDS011;6943;52.368;9.966;2022-09-30T10:26:18;11.63;;;9.20;;
13743;SDS011;6943;52.368;9.966;2022-09-30T10:28:47;10.23;;;9.33;;
13743;SDS011;6943;52.368;9.966;2022-09-30T10:31:15;10.73;;;9.73;;
13743;SDS011;6943;52.368;9.966;2022-09-30T10:34:16;11.40;;;10.23;;
13743;SDS011;6943;52.368;9.966;2022-09-30T10:36:38;11.00;;;9.80;;
13743;SDS011;6943;52.368;9.966;2022-09-30T10:39:14;10.83;;;9.67;;
13743;SDS011;6943;52.368;9.966;2022-09-30T10:42:00;9.97;;;8.70;;
13743;SDS011;6943;52.368;9.966;2022-09-30T10:44:44;10.67;;;8.83;;
13743;SDS011;6943;52.368;9.966;2022-09-30T10:47:13;9.23;;;8.40;;
13743;SDS011;6943;52.368;9.966;2022-09-30T10:49:44;9.63;;;8.33;;
13743;SDS011;6943;52.368;9.966;2022-09-30T10:52:16;10.80;;;9.40;;
13743;SDS011;6943;52.368;9.966;2022-09-30T10:54:49;10.57;;;9.30;;
13743;SDS011;6943;52.368;9.966;2022-09-30T10:57:18;12.77;;;10.43;;
13743;SDS011;6943;52.368;9.966;2022-09-30T10:59:47;10.73;;;9.80;;
13743;SDS011;6943;52.368;9.966;2022-09-30T11:02:25;12.10;;;10.77;;
13743;SDS011;6943;52.368;9.966;2022-09-30T11:05:06;10.80;;;8.90;;
13743;SDS011;6943;52.368;9.966;2022-09-30T11:10:44;9.63;;;8.73;;
13743;SDS011;6943;52.368;9.966;2022-09-30T11:13:52;13.67;;;9.87;;
13743;SDS011;6943;52.368;9.966;2022-09-30T11:16:43;10.10;;;8.50;;
13743;SDS011;6943;52.368;9.966;2022-09-30T11:19:21;7.77;;;7.03;;
13743;SDS011;6943;52.368;9.966;2022-09-30T11:24:43;8.70;;;7.70;;
13743;SDS011;6943;52.368;9.966;2022-09-30T11:27:26;8.67;;;7.53;;
13743;SDS011;6943;52.368;9.966;2022-09-30T11:30:08;11.17;;;8.03;;
13743;SDS011;6943;52.368;9.966;2022-09-30T11:35:43;10.10;;;8.57;;
13743;SDS011;6943;52.368;9.966;2022-09-30T11:40:54;10.93;;;9.83;;
13743;SDS011;6943;52.368;9.966;2022-09-30T11:43:27;9.97;;;8.97;;
13743;SDS011;6943;52.368;9.966;2022-09-30T11:46:25;10.17;;;8.53;;
13743;SDS011;6943;52.368;9.966;2022-09-30T11:51:53;10.13;;;8.40;;
13743;SDS011;6943;52.368;9.966;2022-09-30T11:57:12;10.73;;;9.63;;
13743;SDS011;6943;52.368;9.966;2022-09-30T11:59:54;11.87;;;9.50;;
13743;SDS011;6943;52.368;9.966;2022-09-30T12:02:33;11.50;;;10.30;;
13743;SDS011;6943;52.368;9.966;2022-09-30T12:05:04;13.20;;;11.93;;
13743;SDS011;6943;52.368;9.966;2022-09-30T12:07:37;11.23;;;10.13;;
13743;SDS011;6943;52.368;9.966;2022-09-30T12:10:15;13.90;;;10.47;;
13743;SDS011;6943;52.368;9.966;2022-09-30T12:12:48;11.60;;;10.00;;
13743;SDS011;6943;52.368;9.966;2022-09-30T12:15:20;10.40;;;9.40;;
13743;SDS011;6943;52.368;9.966;2022-09-30T12:17:57;11.63;;;10.47;;
13743;SDS011;6943;52.368;9.966;2022-09-30T12:20:29;12.67;;;9.27;;
13743;SDS011;6943;52.368;9.966;2022-09-30T12:25:56;8.83;;;7.07;;
13743;SDS011;6943;52.368;9.966;2022-09-30T12:28:28;8.70;;;6.93;;
13743;SDS011;6943;52.368;9.966;2022-09-30T12:45:42;7.37;;;5.10;;
13743;SDS011;6943;52.368;9.966;2022-09-30T12:48:14;6.93;;;5.30;;
13743;SDS011;6943;52.368;9.966;2022-09-30T12:50:49;6.13;;;5.53;;
13743;SDS011;6943;52.368;9.966;2022-09-30T12:53:25;5.97;;;4.73;;
13743;SDS011;6943;52.368;9.966;2022-09-30T12:56:09;6.27;;;4.53;;
13743;SDS011;6943;52.368;9.966;2022-09-30T12:58:46;5.03;;;4.53;;
13743;SDS011;6943;52.368;9.966;2022-09-30T13:01:27;5.40;;;4.90;;
13743;SDS011;6943;52.368;9.966;2022-09-30T13:06:25;5.93;;;5.03;;
13743;SDS011;6943;52.368;9.966;2022-09-30T13:19:46;5.30;;;4.60;;
13743;SDS011;6943;52.368;9.966;2022-09-30T13:27:27;5.50;;;4.60;;
13743;SDS011;6943;52.368;9.966;2022-09-30T13:41:00;7.03;;;4.30;;
13743;SDS011;6943;52.368;9.966;2022-09-30T13:43:29;6.47;;;4.47;;
13743;SDS011;6943;52.368;9.966;2022-09-30T13:46:29;5.07;;;4.20;;
13743;SDS011;6943;52.368;9.966;2022-09-30T13:49:03;4.63;;;4.23;;
13743;SDS011;6943;52.368;9.966;2022-09-30T13:51:37;4.70;;;4.30;;
13743;SDS011;6943;52.368;9.966;2022-09-30T13:54:05;5.00;;;4.53;;
13743;SDS011;6943;52.368;9.966;2022-09-30T13:56:37;6.27;;;5.20;;
13743;SDS011;6943;52.368;9.966;2022-09-30T14:07:32;5.23;;;4.57;;
13743;SDS011;6943;52.368;9.966;2022-09-30T14:10:15;7.10;;;4.87;;
13743;SDS011;6943;52.368;9.966;2022-09-30T14:15:25;6.83;;;4.13;;
13743;SDS011;6943;52.368;9.966;2022-09-30T14:20:57;4.37;;;3.97;;
13743;SDS011;6943;52.368;9.966;2022-09-30T14:23:25;5.10;;;4.67;;
13743;SDS011;6943;52.368;9.966;2022-09-30T14:31:31;4.70;;;4.30;;
13743;SDS011;6943;52.368;9.966;2022-09-30T14:33:57;5.77;;;4.43;;
13743;SDS011;6943;52.368;9.966;2022-09-30T14:36:24;6.77;;;4.80;;
13743;SDS011;6943;52.368;9.966;2022-09-30T14:38:51;4.60;;;3.93;;
13743;SDS011;6943;52.368;9.966;2022-09-30T14:41:21;4.97;;;3.40;;
13743;SDS011;6943;52.368;9.966;2022-09-30T14:43:48;4.30;;;3.90;;
13743;SDS011;6943;52.368;9.966;2022-09-30T14:46:28;6.50;;;3.90;;
13743;SDS011;6943;52.368;9.966;2022-09-30T14:48:59;5.53;;;4.27;;
13743;SDS011;6943;52.368;9.966;2022-09-30T14:51:33;4.30;;;3.90;;
13743;SDS011;6943;52.368;9.966;2022-09-30T14:54:01;4.47;;;3.90;;
13743;SDS011;6943;52.368;9.966;2022-09-30T14:56:29;5.03;;;3.97;;
13743;SDS011;6943;52.368;9.966;2022-09-30T14:59:00;4.77;;;3.90;;
13743;SDS011;6943;52.368;9.966;2022-09-30T15:01:47;4.63;;;4.23;;
13743;SDS011;6943;52.368;9.966;2022-09-30T15:04:19;5.03;;;3.93;;
13743;SDS011;6943;52.368;9.966;2022-09-30T15:06:49;6.67;;;4.23;;
13743;SDS011;6943;52.368;9.966;2022-09-30T15:09:31;5.93;;;4.90;;
13743;SDS011;6943;52.368;9.966;2022-09-30T15:12:02;7.67;;;4.73;;
13743;SDS011;6943;52.368;9.966;2022-09-30T15:14:28;5.53;;;4.30;;
13743;SDS011;6943;52.368;9.966;2022-09-30T15:16:55;7.90;;;4.20;;
13743;SDS011;6943;52.368;9.966;2022-09-30T15:22:08;3.90;;;3.60;;
13743;SDS011;6943;52.368;9.966;2022-09-30T15:24:36;8.63;;;4.30;;
13743;SDS011;6943;52.368;9.966;2022-09-30T15:27:04;4.33;;;3.80;;
13743;SDS011;6943;52.368;9.966;2022-09-30T15:29:34;4.33;;;3.60;;
13743;SDS011;6943;52.368;9.966;2022-09-30T15:32:13;4.10;;;3.60;;
13743;SDS011;6943;52.368;9.966;2022-09-30T15:34:44;5.10;;;4.17;;
13743;SDS011;6943;52.368;9.966;2022-09-30T15:37:15;4.77;;;3.90;;
13743;SDS011;6943;52.368;9.966;2022-09-30T15:39:50;4.47;;;3.47;;
13743;SDS011;6943;52.368;9.966;2022-09-30T15:42:39;5.83;;;4.37;;
13743;SDS011;6943;52.368;9.966;2022-09-30T15:48:30;5.07;;;4.00;;
13743;SDS011;6943;52.368;9.966;2022-09-30T15:51:21;5.07;;;4.37;;
13743;SDS011;6943;52.368;9.966;2022-09-30T15:53:47;6.13;;;3.57;;
13743;SDS011;6943;52.368;9.966;2022-09-30T15:56:35;4.47;;;3.77;;
13743;SDS011;6943;52.368;9.966;2022-09-30T15:59:07;7.40;;;4.03;;
13743;SDS011;6943;52.368;9.966;2022-09-30T16:01:38;5.50;;;2.97;;
13743;SDS011;6943;52.368;9.966;2022-09-30T16:06:57;9.60;;;3.73;;
13743;SDS011;6943;52.368;9.966;2022-09-30T16:09:35;3.70;;;3.30;;
13743;SDS011;6943;52.368;9.966;2022-09-30T16:20:19;4.90;;;3.60;;
13743;SDS011;6943;52.368;9.966;2022-09-30T16:25:13;4.43;;;3.00;;
13743;SDS011;6943;52.368;9.966;2022-09-30T16:30:49;4.07;;;3.10;;
13743;SDS011;6943;52.368;9.966;2022-09-30T16:33:18;5.00;;;3.17;;
13743;SDS011;6943;52.368;9.966;2022-09-30T16:35:43;7.43;;;6.33;;
13743;SDS011;6943;52.368;9.966;2022-09-30T16:38:11;5.27;;;4.33;;
13743;SDS011;6943;52.368;9.966;2022-09-30T16:40:39;6.90;;;3.93;;
13743;SDS011;6943;52.368;9.966;2022-09-30T16:43:06;7.43;;;4.17;;
13743;SDS011;6943;52.368;9.966;2022-09-30T16:45:35;5.60;;;3.53;;
13743;SDS011;6943;52.368;9.966;2022-09-30T16:48:15;6.37;;;3.43;;
13743;SDS011;6943;52.368;9.966;2022-09-30T16:53:09;4.43;;;3.33;;
13743;SDS011;6943;52.368;9.966;2022-09-30T16:55:35;4.17;;;3.47;;
13743;SDS011;6943;52.368;9.966;2022-09-30T16:58:00;8.33;;;6.47;;
13743;SDS011;6943;52.368;9.966;2022-09-30T17:00:29;6.73;;;4.23;;
13743;SDS011;6943;52.368;9.966;2022-09-30T17:02:55;5.63;;;3.97;;
13743;SDS011;6943;52.368;9.966;2022-09-30T17:05:21;4.93;;;3.80;;
13743;SDS011;6943;52.368;9.966;2022-09-30T17:07:52;7.47;;;4.27;;
13743;SDS011;6943;52.368;9.966;2022-09-30T17:10:20;5.03;;;4.07;;
13743;SDS011;6943;52.368;9.966;2022-09-30T17:12:48;5.23;;;4.73;;
13743;SDS011;6943;52.368;9.966;2022-09-30T17:15:15;4.63;;;4.20;;
13743;SDS011;6943;52.368;9.966;2022-09-30T17:17:42;5.93;;;4.63;;
13743;SDS011;6943;52.368;9.966;2022-09-30T17:20:08;5.20;;;4.53;;
13743;SDS011;6943;52.368;9.966;2022-09-30T17:22:34;5.80;;;4.80;;
13743;SDS011;6943;52.368;9.966;2022-09-30T17:24:59;6.70;;;5.43;;
13743;SDS011;6943;52.368;9.966;2022-09-30T17:27:25;7.97;;;7.17;;
13743;SDS011;6943;52.368;9.966;2022-09-30T17:29:50;7.77;;;5.20;;
13743;SDS011;6943;52.368;9.966;2022-09-30T17:32:16;6.50;;;5.67;;
13743;SDS011;6943;52.368;9.966;2022-09-30T17:34:41;5.57;;;5.07;;
13743;SDS011;6943;52.368;9.966;2022-09-30T17:37:08;7.30;;;6.27;;
13743;SDS011;6943;52.368;9.966;2022-09-30T17:39:35;10.10;;;7.37;;
13743;SDS011;6943;52.368;9.966;2022-09-30T17:42:00;8.27;;;7.00;;
13743;SDS011;6943;52.368;9.966;2022-09-30T17:44:44;9.50;;;6.97;;
13743;SDS011;6943;52.368;9.966;2022-09-30T17:47:11;10.03;;;6.97;;
13743;SDS011;6943;52.368;9.966;2022-09-30T17:49:37;10.23;;;7.83;;
13743;SDS011;6943;52.368;9.966;2022-09-30T17:52:02;15.90;;;9.10;;
13743;SDS011;6943;52.368;9.966;2022-09-30T17:54:28;16.30;;;10.07;;
13743;SDS011;6943;52.368;9.966;2022-09-30T17:56:54;17.60;;;10.43;;
13743;SDS011;6943;52.368;9.966;2022-09-30T17:59:21;21.83;;;13.13;;
13743;SDS011;6943;52.368;9.966;2022-09-30T18:01:50;22.43;;;14.80;;
13743;SDS011;6943;52.368;9.966;2022-09-30T18:04:16;20.90;;;14.53;;
13743;SDS011;6943;52.368;9.966;2022-09-30T18:06:43;13.43;;;10.93;;
13743;SDS011;6943;52.368;9.966;2022-09-30T18:09:09;12.77;;;9.13;;
13743;SDS011;6943;52.368;9.966;2022-09-30T18:11:35;12.07;;;8.50;;
13743;SDS011;6943;52.368;9.966;2022-09-30T18:14:01;13.30;;;10.87;;
13743;SDS011;6943;52.368;9.966;2022-09-30T18:16:28;11.80;;;9.20;;
13743;SDS011;6943;52.368;9.966;2022-09-30T18:18:55;10.53;;;8.60;;
13743;SDS011;6943;52.368;9.966;2022-09-30T18:21:22;11.93;;;9.40;;
13743;SDS011;6943;52.368;9.966;2022-09-30T18:23:49;10.37;;;8.07;;